createdAt,value
2022-10-17T00:00:58.024Z,10.50
2022-10-17T00:03:24.836Z,10.50
2022-10-17T00:05:51.701Z,10.50
2022-10-17T00:08:19.264Z,10.50
2022-10-17T00:10:46.245Z,10.50
2022-10-17T00:13:13.391Z,10.50
2022-10-17T00:15:43.099Z,10.50
2022-10-17T00:18:09.937Z,10.50
2022-10-17T00:20:36.857Z,10.50
2022-10-17T00:23:04.021Z,10.50
2022-10-17T00:25:30.832Z,10.50
2022-10-17T00:27:57.685Z,10.50
2022-10-17T00:30:24.585Z,10.50
2022-10-17T00:32:51.486Z,10.50
2022-10-17T00:35:18.400Z,10.50
2022-10-17T00:37:45.287Z,10.50
2022-10-17T00:40:12.566Z,10.50
2022-10-17T00:42:39.396Z,10.40
2022-10-17T00:45:08.745Z,10.40
2022-10-17T00:47:36.223Z,10.40
2022-10-17T00:50:03.903Z,10.40
2022-10-17T00:52:31.321Z,10.30
2022-10-17T00:55:07.206Z,10.30
2022-10-17T00:57:34.202Z,10.20
2022-10-17T01:00:06.951Z,10.20
2022-10-17T01:02:33.837Z,10.10
2022-10-17T01:05:01.156Z,10.10
2022-10-17T01:07:33.120Z,10.00
2022-10-17T01:10:04.226Z,10.00
2022-10-17T01:12:31.288Z,10.00
2022-10-17T01:15:01.238Z,9.90
2022-10-17T01:17:46.312Z,9.90
2022-10-17T01:20:26.510Z,9.90
2022-10-17T01:23:03.740Z,9.80
2022-10-17T01:25:49.383Z,9.90
2022-10-17T01:28:24.702Z,9.80
2022-10-17T01:30:54.750Z,9.80
2022-10-17T01:33:30.672Z,9.80
2022-10-17T01:36:23.672Z,9.80
2022-10-17T01:38:57.220Z,9.70
2022-10-17T01:41:42.870Z,9.70
2022-10-17T01:44:09.711Z,9.60
2022-10-17T01:46:38.157Z,9.60
2022-10-17T01:49:06.750Z,9.60
2022-10-17T01:51:36.526Z,9.60
2022-10-17T01:54:07.399Z,9.60
2022-10-17T01:56:35.334Z,9.60
2022-10-17T01:59:06.786Z,9.60
2022-10-17T02:01:35.741Z,9.60
2022-10-17T02:04:03.589Z,9.60
2022-10-17T02:06:34.231Z,9.60
2022-10-17T02:09:01.182Z,9.60
2022-10-17T02:11:28.282Z,9.50
2022-10-17T02:14:14.798Z,9.50
2022-10-17T02:16:50.764Z,9.50
2022-10-17T02:19:38.342Z,9.50
2022-10-17T02:22:08.172Z,9.40
2022-10-17T02:24:34.976Z,9.40
2022-10-17T02:27:26.602Z,9.40
2022-10-17T02:30:08.442Z,9.40
2022-10-17T02:32:39.791Z,9.40
2022-10-17T02:35:09.434Z,9.40
2022-10-17T02:37:36.659Z,9.40
2022-10-17T02:40:04.960Z,9.50
2022-10-17T02:42:33.003Z,9.40
2022-10-17T02:45:01.416Z,9.40
2022-10-17T02:47:32.177Z,9.40
2022-10-17T02:49:59.155Z,9.40
2022-10-17T02:52:32.644Z,9.30
2022-10-17T02:55:03.463Z,9.30
2022-10-17T02:57:41.475Z,9.40
2022-10-17T03:00:10.495Z,9.40
2022-10-17T03:02:47.737Z,9.30
2022-10-17T03:05:16.970Z,9.40
2022-10-17T03:07:44.013Z,9.40
2022-10-17T03:10:10.857Z,9.40
2022-10-17T03:12:37.980Z,9.40
2022-10-17T03:15:05.378Z,9.40
2022-10-17T03:17:32.474Z,9.40
2022-10-17T03:19:59.427Z,9.40
2022-10-17T03:22:26.557Z,9.40
2022-10-17T03:24:53.623Z,9.40
2022-10-17T03:27:20.475Z,9.30
2022-10-17T03:29:47.653Z,9.30
2022-10-17T03:32:14.623Z,9.30
2022-10-17T03:34:41.562Z,9.20
2022-10-17T03:37:08.422Z,9.30
2022-10-17T03:39:35.239Z,9.30
2022-10-17T03:42:02.241Z,9.30
2022-10-17T03:44:29.152Z,9.30
2022-10-17T03:46:55.987Z,9.30
2022-10-17T03:49:22.832Z,9.30
2022-10-17T03:51:49.663Z,9.30
2022-10-17T03:54:16.577Z,9.30
2022-10-17T03:56:44.044Z,9.30
2022-10-17T03:59:14.514Z,9.20
2022-10-17T04:01:41.784Z,9.20
2022-10-17T04:04:09.051Z,9.10
2022-10-17T04:06:36.073Z,9.10
2022-10-17T04:09:03.147Z,9.10
2022-10-17T04:11:29.972Z,9.10
2022-10-17T04:13:57.282Z,9.10
2022-10-17T04:16:24.526Z,9.10
2022-10-17T04:18:55.839Z,9.10
2022-10-17T04:21:23.207Z,9.10
2022-10-17T04:23:52.922Z,9.10
2022-10-17T04:26:19.833Z,9.00
2022-10-17T04:28:46.675Z,9.00
2022-10-17T04:31:14.671Z,9.00
2022-10-17T04:33:42.017Z,9.00
2022-10-17T04:36:12.448Z,9.00
2022-10-17T04:38:39.294Z,9.00
2022-10-17T04:41:07.561Z,9.10
2022-10-17T04:43:35.968Z,9.00
2022-10-17T04:46:03.751Z,9.00
2022-10-17T04:48:30.867Z,9.00
2022-10-17T04:50:59.407Z,8.90
2022-10-17T04:53:29.763Z,8.90
2022-10-17T04:55:56.641Z,8.90
2022-10-17T04:58:23.849Z,8.80
2022-10-17T05:00:50.749Z,8.80
2022-10-17T05:03:17.649Z,8.80
2022-10-17T05:05:44.810Z,8.80
2022-10-17T05:08:12.055Z,8.80
2022-10-17T05:10:39.773Z,8.70
2022-10-17T05:13:07.376Z,8.70
2022-10-17T05:15:34.693Z,8.70
2022-10-17T05:18:01.515Z,8.70
2022-10-17T05:20:29.218Z,8.70
2022-10-17T05:22:56.071Z,8.70
2022-10-17T05:25:22.904Z,8.70
2022-10-17T05:27:49.776Z,8.70
2022-10-17T05:30:16.783Z,8.60
2022-10-17T05:32:43.587Z,8.70
2022-10-17T05:35:10.497Z,8.60
2022-10-17T05:37:37.280Z,8.60
2022-10-17T05:40:04.501Z,8.60
2022-10-17T05:42:31.985Z,8.60
2022-10-17T05:44:59.626Z,8.50
2022-10-17T05:47:26.940Z,8.50
2022-10-17T05:49:53.974Z,8.50
2022-10-17T05:52:20.864Z,8.50
2022-10-17T05:54:47.718Z,8.40
2022-10-17T05:57:14.554Z,8.60
2022-10-17T05:59:41.657Z,8.60
2022-10-17T06:02:09.387Z,8.50
2022-10-17T06:04:36.223Z,8.50
2022-10-17T06:07:03.107Z,8.40
2022-10-17T06:09:30.240Z,8.50
2022-10-17T06:11:57.275Z,8.50
2022-10-17T06:14:24.094Z,8.40
2022-10-17T06:16:50.942Z,8.40
2022-10-17T06:19:17.790Z,8.40
2022-10-17T06:21:44.641Z,8.40
2022-10-17T06:24:11.713Z,8.30
2022-10-17T06:26:38.719Z,8.30
2022-10-17T06:29:05.620Z,8.40
2022-10-17T06:31:32.535Z,8.40
2022-10-17T06:33:59.445Z,8.40
2022-10-17T06:36:26.296Z,8.50
2022-10-17T06:38:53.170Z,8.60
2022-10-17T06:41:20.104Z,8.60
2022-10-17T06:43:47.463Z,8.70
2022-10-17T06:46:15.756Z,8.70
2022-10-17T06:48:42.581Z,8.80
2022-10-17T06:51:12.276Z,8.80
2022-10-17T06:53:40.237Z,8.80
2022-10-17T06:56:07.868Z,8.90
2022-10-17T06:58:35.805Z,8.90
2022-10-17T07:01:05.029Z,9.00
2022-10-17T07:03:32.048Z,9.00
2022-10-17T07:05:59.247Z,9.00
2022-10-17T07:08:26.351Z,9.10
2022-10-17T07:10:53.286Z,9.10
2022-10-17T07:13:20.256Z,9.10
2022-10-17T07:15:47.453Z,9.10
2022-10-17T07:18:14.337Z,9.20
2022-10-17T07:20:41.138Z,9.30
2022-10-17T07:23:08.055Z,9.30
2022-10-17T07:25:39.277Z,9.40
2022-10-17T07:28:07.258Z,9.40
2022-10-17T07:30:34.127Z,9.50
2022-10-17T07:33:00.931Z,9.50
2022-10-17T07:35:27.804Z,9.60
2022-10-17T07:37:54.657Z,9.60
2022-10-17T07:40:21.478Z,9.60
2022-10-17T07:42:48.410Z,9.60
2022-10-17T07:45:15.970Z,9.70
2022-10-17T07:47:43.087Z,9.80
2022-10-17T07:50:10.079Z,9.80
2022-10-17T07:52:37.012Z,9.90
2022-10-17T07:55:03.936Z,9.90
2022-10-17T07:57:30.819Z,9.90
2022-10-17T07:59:57.631Z,9.90
2022-10-17T08:02:25.457Z,10.00
2022-10-17T08:04:52.594Z,10.00
2022-10-17T08:07:24.333Z,10.00
2022-10-17T08:09:53.799Z,10.10
2022-10-17T08:12:20.803Z,10.20
2022-10-17T08:14:48.266Z,10.30
2022-10-17T08:17:15.148Z,10.30
2022-10-17T08:19:42.072Z,10.30
2022-10-17T08:22:09.133Z,10.40
2022-10-17T08:24:35.998Z,10.40
2022-10-17T08:27:04.056Z,10.50
2022-10-17T08:29:32.916Z,10.50
2022-10-17T08:32:01.177Z,10.50
2022-10-17T08:34:29.219Z,10.50
2022-10-17T08:36:56.065Z,10.50
2022-10-17T08:39:22.970Z,10.60
2022-10-17T08:41:56.046Z,10.60
2022-10-17T08:44:25.982Z,10.60
2022-10-17T08:46:57.198Z,10.60
2022-10-17T08:49:30.204Z,10.70
2022-10-17T08:52:02.408Z,10.70
2022-10-17T08:54:39.395Z,10.70
2022-10-17T08:57:11.171Z,10.70
2022-10-17T08:59:38.062Z,10.80
2022-10-17T09:02:24.144Z,10.90
2022-10-17T09:05:13.555Z,10.90
2022-10-17T09:08:09.707Z,11.10
2022-10-17T09:10:48.112Z,11.00
2022-10-17T09:13:38.067Z,11.10
2022-10-17T09:16:14.229Z,11.10
2022-10-17T09:18:42.856Z,11.00
2022-10-17T09:21:18.678Z,11.20
2022-10-17T09:23:47.525Z,11.20
2022-10-17T09:26:14.550Z,11.20
2022-10-17T09:28:42.313Z,11.20
2022-10-17T09:31:23.200Z,11.30
2022-10-17T09:33:55.216Z,11.30
2022-10-17T09:36:24.233Z,11.40
2022-10-17T09:38:52.991Z,11.40
2022-10-17T09:41:45.417Z,11.50
2022-10-17T09:44:20.349Z,11.60
2022-10-17T09:46:53.686Z,11.70
2022-10-17T09:49:25.676Z,11.80
2022-10-17T09:51:52.735Z,11.80
2022-10-17T09:54:24.654Z,11.80
2022-10-17T09:57:02.424Z,11.90
2022-10-17T09:59:36.803Z,11.90
2022-10-17T10:02:15.201Z,11.90
2022-10-17T10:05:06.328Z,11.90
2022-10-17T10:07:38.217Z,12.00
2022-10-17T10:10:07.016Z,12.00
2022-10-17T10:12:35.580Z,12.00
2022-10-17T10:15:02.893Z,12.00
2022-10-17T10:17:37.864Z,12.10
2022-10-17T10:20:24.650Z,12.10
2022-10-17T10:23:06.935Z,12.10
2022-10-17T10:25:35.071Z,12.10
2022-10-17T10:28:02.291Z,12.10
2022-10-17T10:30:30.067Z,12.10
2022-10-17T10:32:58.586Z,12.10
2022-10-17T10:35:31.567Z,12.10
2022-10-17T10:37:59.088Z,12.00
2022-10-17T10:40:25.863Z,12.00
2022-10-17T10:42:54.304Z,11.90
2022-10-17T10:45:46.863Z,11.90
2022-10-17T10:48:30.446Z,11.90
2022-10-17T10:51:00.039Z,11.90
2022-10-17T10:53:45.740Z,11.90
2022-10-17T10:56:18.745Z,11.90
2022-10-17T10:59:08.521Z,12.00
2022-10-17T11:01:42.428Z,12.00
2022-10-17T11:04:29.204Z,12.10
2022-10-17T11:07:13.255Z,12.10
2022-10-17T11:09:46.449Z,12.10
2022-10-17T11:12:19.171Z,12.10
2022-10-17T11:14:52.227Z,12.10
2022-10-17T11:17:29.113Z,12.10
2022-10-17T11:20:20.186Z,12.10
2022-10-17T11:22:48.321Z,12.20
2022-10-17T11:25:20.752Z,12.10
2022-10-17T11:27:47.701Z,12.10
2022-10-17T11:30:16.482Z,12.10
2022-10-17T11:32:46.777Z,12.10
2022-10-17T11:35:14.005Z,12.10
2022-10-17T11:37:48.305Z,12.00
2022-10-17T11:40:31.204Z,12.00
2022-10-17T11:42:58.118Z,12.00
2022-10-17T11:45:26.522Z,12.00
2022-10-17T11:48:06.610Z,12.00
2022-10-17T11:53:30.232Z,12.00
2022-10-17T11:55:59.055Z,12.00
2022-10-17T11:58:33.416Z,12.00
2022-10-17T12:01:16.300Z,12.00
2022-10-17T12:03:48.349Z,12.00
2022-10-17T12:06:15.137Z,12.00
2022-10-17T12:08:58.503Z,12.00
2022-10-17T12:11:40.816Z,11.90
2022-10-17T12:14:26.651Z,11.90
2022-10-17T12:16:53.672Z,11.90
2022-10-17T12:19:24.806Z,11.90
2022-10-17T12:21:56.095Z,11.90
2022-10-17T12:24:43.287Z,11.80
2022-10-17T12:27:29.211Z,11.80
2022-10-17T12:30:04.425Z,11.80
2022-10-17T12:32:47.013Z,11.80
2022-10-17T12:35:22.216Z,11.80
2022-10-17T12:37:48.973Z,11.80
2022-10-17T12:40:34.492Z,11.80
2022-10-17T12:43:21.553Z,11.80
2022-10-17T12:45:52.808Z,11.80
2022-10-17T12:48:34.838Z,11.80
2022-10-17T12:51:30.669Z,11.80
2022-10-17T12:53:59.193Z,11.80
2022-10-17T12:56:31.861Z,11.80
2022-10-17T12:58:59.236Z,11.80
2022-10-17T13:01:31.736Z,11.80
2022-10-17T13:04:02.739Z,11.80
2022-10-17T13:06:31.237Z,11.80
2022-10-17T13:09:04.176Z,11.80
2022-10-17T13:11:34.079Z,11.80
2022-10-17T13:14:02.193Z,11.80
2022-10-17T13:16:31.042Z,11.80
2022-10-17T13:18:58.866Z,11.80
2022-10-17T13:21:26.298Z,11.80
2022-10-17T13:23:54.480Z,11.70
2022-10-17T13:26:24.826Z,11.70
2022-10-17T13:31:38.668Z,11.70
2022-10-17T13:34:06.748Z,11.70
2022-10-17T13:36:35.282Z,11.70
2022-10-17T13:39:09.382Z,11.70
2022-10-17T13:41:39.949Z,11.70
2022-10-17T13:44:15.147Z,11.70
2022-10-17T13:46:43.145Z,11.70
2022-10-17T13:49:13.148Z,11.70
2022-10-17T13:51:43.003Z,11.70
2022-10-17T13:54:28.678Z,11.70
2022-10-17T13:56:56.975Z,11.70
2022-10-17T13:59:25.185Z,11.70
2022-10-17T14:01:52.507Z,11.70
2022-10-17T14:04:20.592Z,11.60
2022-10-17T14:06:51.124Z,11.60
2022-10-17T14:09:23.632Z,11.60
2022-10-17T14:12:04.498Z,11.60
2022-10-17T14:14:46.056Z,11.50
2022-10-17T14:17:25.708Z,11.50
2022-10-17T14:23:04.462Z,11.50
2022-10-17T14:25:38.805Z,11.40
2022-10-17T14:28:10.922Z,11.40
2022-10-17T14:30:55.752Z,11.40
2022-10-17T14:33:28.698Z,11.40
2022-10-17T14:35:57.004Z,11.40
2022-10-17T14:38:24.658Z,11.40
2022-10-17T14:41:15.420Z,11.40
2022-10-17T14:43:45.449Z,11.30
2022-10-17T14:46:14.821Z,11.30
2022-10-17T14:48:42.280Z,11.30
2022-10-17T14:51:10.172Z,11.30
2022-10-17T14:53:37.444Z,11.30
2022-10-17T14:56:20.331Z,11.30
2022-10-17T14:58:47.224Z,11.30
2022-10-17T15:01:13.992Z,11.30
2022-10-17T15:03:40.859Z,11.30
2022-10-17T15:06:31.171Z,11.30
2022-10-17T15:08:58.277Z,11.30
2022-10-17T15:11:25.390Z,11.30
2022-10-17T15:13:52.648Z,11.30
2022-10-17T15:16:22.007Z,11.30
2022-10-17T15:18:49.198Z,11.30
2022-10-17T15:21:33.615Z,11.30
2022-10-17T15:24:04.961Z,11.30
2022-10-17T15:26:32.705Z,11.30
2022-10-17T15:29:00.016Z,11.30
2022-10-17T15:31:27.566Z,11.30
2022-10-17T15:33:54.566Z,11.20
2022-10-17T15:36:23.417Z,11.20
2022-10-17T15:38:52.262Z,11.20
2022-10-17T15:41:19.676Z,11.20
2022-10-17T15:43:47.496Z,11.20
2022-10-17T15:46:33.922Z,11.30
2022-10-17T15:49:10.395Z,11.30
2022-10-17T15:51:37.266Z,11.30
2022-10-17T15:54:06.450Z,11.30
2022-10-17T15:56:37.762Z,11.30
2022-10-17T15:59:05.655Z,11.30
2022-10-17T16:01:33.343Z,11.30
2022-10-17T16:04:00.331Z,11.30
2022-10-17T16:06:27.191Z,11.30
2022-10-17T16:08:54.015Z,11.30
2022-10-17T16:11:34.979Z,11.30
2022-10-17T16:14:03.632Z,11.30
2022-10-17T16:16:30.573Z,11.30
2022-10-17T16:18:57.405Z,11.20
2022-10-17T16:21:25.779Z,11.20
2022-10-17T16:23:53.017Z,11.20
2022-10-17T16:26:20.171Z,11.20
2022-10-17T16:28:47.193Z,11.10
2022-10-17T16:31:24.462Z,11.10
2022-10-17T16:33:53.036Z,11.10
2022-10-17T16:36:20.458Z,11.10
2022-10-17T16:38:48.115Z,11.10
2022-10-17T16:41:25.134Z,11.00
2022-10-17T16:43:53.533Z,11.00
2022-10-17T16:46:21.093Z,11.00
2022-10-17T16:48:48.320Z,11.00
2022-10-17T16:51:15.632Z,11.00
2022-10-17T16:53:45.397Z,10.90
2022-10-17T16:56:13.554Z,10.90
2022-10-17T16:58:41.023Z,10.90
2022-10-17T17:01:10.414Z,10.80
2022-10-17T17:03:38.148Z,10.70
2022-10-17T17:06:08.518Z,10.70
2022-10-17T17:08:37.301Z,10.80
2022-10-17T17:11:07.932Z,10.70
2022-10-17T17:13:35.498Z,10.70
2022-10-17T17:16:06.355Z,10.70
2022-10-17T17:18:33.340Z,10.70
2022-10-17T17:21:01.263Z,10.60
2022-10-17T17:23:28.789Z,10.60
2022-10-17T17:26:02.303Z,10.60
2022-10-17T17:28:29.307Z,10.60
2022-10-17T17:30:56.312Z,10.60
2022-10-17T17:33:24.005Z,10.60
2022-10-17T17:35:55.367Z,10.60
2022-10-17T17:38:22.404Z,10.50
2022-10-17T17:40:51.029Z,10.50
2022-10-17T17:43:18.732Z,10.50
2022-10-17T17:45:45.784Z,10.50
2022-10-17T17:48:12.813Z,10.50
2022-10-17T17:50:40.619Z,10.40
2022-10-17T17:53:08.107Z,10.40
2022-10-17T17:55:35.418Z,10.40
2022-10-17T17:58:02.980Z,10.40
2022-10-17T18:00:29.970Z,10.40
2022-10-17T18:02:57.279Z,10.40
2022-10-17T18:05:24.219Z,10.40
2022-10-17T18:07:51.231Z,10.50
2022-10-17T18:10:18.186Z,10.40
2022-10-17T18:12:45.087Z,10.40
2022-10-17T18:15:12.414Z,10.40
2022-10-17T18:17:39.489Z,10.50
2022-10-17T18:20:06.659Z,10.40
2022-10-17T18:22:33.962Z,10.40
2022-10-17T18:25:01.249Z,10.40
2022-10-17T18:27:28.209Z,10.40
2022-10-17T18:29:54.998Z,10.40
2022-10-17T18:32:21.816Z,10.30
2022-10-17T18:34:48.620Z,10.40
2022-10-17T18:37:15.469Z,10.30
2022-10-17T18:39:42.576Z,10.20
2022-10-17T18:42:09.579Z,10.20
2022-10-17T18:44:36.485Z,10.10
2022-10-17T18:47:04.433Z,10.10
2022-10-17T18:49:31.579Z,10.10
2022-10-17T18:51:59.826Z,10.00
2022-10-17T18:54:26.946Z,10.00
2022-10-17T18:56:54.689Z,10.00
2022-10-17T18:59:21.915Z,10.00
2022-10-17T19:01:48.953Z,10.00
2022-10-17T19:04:16.078Z,9.90
2022-10-17T19:06:42.952Z,10.00
2022-10-17T19:09:11.246Z,9.90
2022-10-17T19:11:38.301Z,9.90
2022-10-17T19:14:08.293Z,9.90
2022-10-17T19:16:36.410Z,9.80
2022-10-17T19:19:26.447Z,9.80
2022-10-17T19:21:53.324Z,9.80
2022-10-17T19:24:21.752Z,9.70
2022-10-17T19:26:53.647Z,9.70
2022-10-17T19:29:21.593Z,9.60
2022-10-17T19:31:48.833Z,9.60
2022-10-17T19:34:16.379Z,9.50
2022-10-17T19:36:43.491Z,9.50
2022-10-17T19:39:12.172Z,9.50
2022-10-17T19:41:42.974Z,9.40
2022-10-17T19:44:09.839Z,9.30
2022-10-17T19:46:36.632Z,9.30
2022-10-17T19:49:04.027Z,9.30
2022-10-17T19:51:30.885Z,9.30
2022-10-17T19:54:00.469Z,9.30
2022-10-17T19:56:28.046Z,9.30
2022-10-17T19:58:55.761Z,9.30
2022-10-17T20:01:27.452Z,9.20
2022-10-17T20:03:54.723Z,9.20
2022-10-17T20:06:22.192Z,9.30
2022-10-17T20:08:49.452Z,9.30
2022-10-17T20:11:17.875Z,9.30
2022-10-17T20:13:45.075Z,9.30
2022-10-17T20:16:13.694Z,9.30
2022-10-17T20:18:41.086Z,9.30
2022-10-17T20:21:10.476Z,9.30
2022-10-17T20:23:37.528Z,9.30
2022-10-17T20:26:18.857Z,9.30
2022-10-17T20:28:52.971Z,9.30
2022-10-17T20:31:20.003Z,9.20
2022-10-17T20:33:46.949Z,9.20
2022-10-17T20:36:14.574Z,9.20
2022-10-17T20:38:41.418Z,9.20
2022-10-17T20:41:09.531Z,9.10
2022-10-17T20:43:37.173Z,9.20
2022-10-17T20:46:21.940Z,9.10
2022-10-17T20:48:54.258Z,9.10
2022-10-17T20:51:21.218Z,9.10
2022-10-17T20:53:48.408Z,9.10
2022-10-17T20:56:25.983Z,9.00
2022-10-17T20:58:54.072Z,9.10
2022-10-17T21:01:21.268Z,9.10
2022-10-17T21:03:48.727Z,9.10
2022-10-17T21:06:16.147Z,9.10
2022-10-17T21:08:43.114Z,9.10
2022-10-17T21:11:11.567Z,9.00
2022-10-17T21:13:38.433Z,9.10
2022-10-17T21:16:09.905Z,9.10
2022-10-17T21:18:37.007Z,9.00
2022-10-17T21:21:29.869Z,9.00
2022-10-17T21:23:57.467Z,9.00
2022-10-17T21:26:24.732Z,9.00
2022-10-17T21:28:51.739Z,9.00
2022-10-17T21:31:20.082Z,9.00
2022-10-17T21:34:02.167Z,9.00
2022-10-17T21:36:28.938Z,9.00
2022-10-17T21:38:56.820Z,9.00
2022-10-17T21:41:28.073Z,9.00
2022-10-17T21:43:55.868Z,9.00
2022-10-17T21:46:23.277Z,9.00
2022-10-17T21:48:51.886Z,9.00
2022-10-17T21:51:19.909Z,9.00
2022-10-17T21:53:46.748Z,9.00
2022-10-17T21:56:14.867Z,8.90
2022-10-17T21:58:42.426Z,8.90
2022-10-17T22:01:10.601Z,9.00
2022-10-17T22:03:42.600Z,8.90
2022-10-17T22:09:00.961Z,8.90
2022-10-17T22:11:29.102Z,9.00
2022-10-17T22:13:56.634Z,9.00
2022-10-17T22:16:23.668Z,9.00
2022-10-17T22:18:50.787Z,9.00
2022-10-17T22:21:18.748Z,9.00
2022-10-17T22:23:46.623Z,9.00
2022-10-17T22:26:13.909Z,9.00
2022-10-17T22:28:41.458Z,9.00
2022-10-17T22:31:08.883Z,9.10
2022-10-17T22:33:36.736Z,9.00
2022-10-17T22:36:04.196Z,9.10
2022-10-17T22:38:31.431Z,9.10
2022-10-17T22:40:58.291Z,9.10
2022-10-17T22:43:25.292Z,9.10
2022-10-17T22:45:56.570Z,9.10
2022-10-17T22:48:23.971Z,9.10
2022-10-17T22:50:51.384Z,9.20
2022-10-17T22:53:26.431Z,9.20
2022-10-17T22:55:58.613Z,9.10
2022-10-17T22:58:26.331Z,8.90
2022-10-17T23:00:53.692Z,8.90
2022-10-17T23:03:21.155Z,9.00
2022-10-17T23:05:48.507Z,9.00
2022-10-17T23:08:15.885Z,9.00
2022-10-17T23:10:42.717Z,9.00
2022-10-17T23:13:09.694Z,9.10
2022-10-17T23:15:36.983Z,9.10
2022-10-17T23:18:04.509Z,9.00
2022-10-17T23:20:31.811Z,9.00
2022-10-17T23:22:59.026Z,9.10
2022-10-17T23:25:26.459Z,9.10
2022-10-17T23:27:54.099Z,9.10
2022-10-17T23:30:20.939Z,9.10
2022-10-17T23:32:47.760Z,9.10
2022-10-17T23:35:14.779Z,9.20
2022-10-17T23:37:41.605Z,9.20
2022-10-17T23:40:09.244Z,9.20
2022-10-17T23:42:36.154Z,9.20
2022-10-17T23:45:03.304Z,9.20
2022-10-17T23:47:31.499Z,9.20
2022-10-17T23:49:58.872Z,9.20
2022-10-17T23:52:25.739Z,9.10
2022-10-17T23:54:52.692Z,9.10
2022-10-17T23:57:19.636Z,9.10
2022-10-17T23:59:46.603Z,9.10
